Gaziantep, Turkey

4:56 PM EEST on August 30, 2015 (GMT +0300)
City Center | | Change Station
CLOSE
Current Station
Personal Weather Station
Location: Gaziantep, GAZIANTEP
Elevation: 2779 ft
Nearby Weather Stations

Elev 2779 ft 37.07 °N, 37.37 °E | Updated 6 minutes ago

Overcast
Overcast
80.1 °F
Feels Like 80 °F
N
7.6
Wind Variable Wind from West
Gusts 14.5 mph

Today
High -- | Low -- °F
--% Chance of Precip.
Yesterday
High -- | Low -- °F
Precip. -- in
5:59 AM 7:02 PM
Full, 99% visible
Pressure 29.86 in
Visibility 6.2 miles
Clouds Few 2500 ft
Mostly Cloudy 3500 ft
Heat Index 80 °F
Dew Point 54 °F
Humidity 41%
Rainfall 0.00 in
Snow Depth Not available.
UV 2 out of 12
Pollen Not available.
Air Quality Not available.
Flu Activity Not available.
SPECI LTAJ 301330Z 21015KT 180V240 9999 -TSRA FEW025CB BKN035 28/05 Q1011 BECMG TL1430 VRB02KT NSW RMK RWY10 22013G23KT 180V240
Pressure 29.86 in
Visibility 6.2 miles
Clouds Few 2500 ft
Mostly Cloudy 3500 ft
Heat Index 80 °F
Dew Point 54 °F
Humidity 41%
Rainfall 0.00 in
Snow Depth Not available.
UV 2 out of 12
Pollen Not available.
Air Quality Not available.
Flu Activity Not available.
SPECI LTAJ 301330Z 21015KT 180V240 9999 -TSRA FEW025CB BKN035 28/05 Q1011 BECMG TL1430 VRB02KT NSW RMK RWY10 22013G23KT 180V240

10-Day Weather Forecast

×

Almanac

Astronomy

Aug. 30, 2015 Rise Set
Actual Time
Civil Twilight
Nautical Twilight
Astronomical Twilight
Moon
Length of Visible Light
Length of Day
Tomorrow will be .
, % of the Moon is Illuminated

Today's Extremes

Country Highs Country Lows

Community

WunderPhotos

Upload Photos

1,850,954 photos uploaded!

WunderBlogs® & News

Nearby

Air Quality

  Air Quality AQ Index Pollutant
Not available.

Snow Depth

Station Depth Elevation

Earthquake Activity

City Distance Mag. Time & Date
Minimum magnitude displayed is 2.5.

Coastal Water Temperatures

Place Temperature

Stations

Nearby Weather Stations

Station Location Temp. Windchill Dew Point Humidity Wind Precip. Elev Updated Type